sensor_id;sensor_type;location;lat;lon;timestamp;temperature;humidity
3312;DHT22;1668;49.648;8.570;2023-12-29T00:00:11;8.60;99.90
3312;DHT22;1668;49.648;8.570;2023-12-29T00:02:38;8.50;99.90
3312;DHT22;1668;49.648;8.570;2023-12-29T00:05:07;8.50;99.90
3312;DHT22;1668;49.648;8.570;2023-12-29T00:07:34;8.50;99.90
3312;DHT22;1668;49.648;8.570;2023-12-29T00:10:01;8.50;99.90
3312;DHT22;1668;49.648;8.570;2023-12-29T00:12:28;8.50;99.90
3312;DHT22;1668;49.648;8.570;2023-12-29T00:14:55;8.40;99.90
3312;DHT22;1668;49.648;8.570;2023-12-29T00:17:22;8.40;99.90
3312;DHT22;1668;49.648;8.570;2023-12-29T00:19:48;8.40;99.90
3312;DHT22;1668;49.648;8.570;2023-12-29T00:22:17;8.40;99.90
3312;DHT22;1668;49.648;8.570;2023-12-29T00:24:44;8.40;99.90
3312;DHT22;1668;49.648;8.570;2023-12-29T00:27:10;8.40;99.90
3312;DHT22;1668;49.648;8.570;2023-12-29T00:29:37;8.30;99.90
3312;DHT22;1668;49.648;8.570;2023-12-29T00:32:05;8.30;99.90
3312;DHT22;1668;49.648;8.570;2023-12-29T00:34:32;8.30;99.90
3312;DHT22;1668;49.648;8.570;2023-12-29T00:36:59;8.30;99.90
3312;DHT22;1668;49.648;8.570;2023-12-29T00:39:27;8.30;99.90
3312;DHT22;1668;49.648;8.570;2023-12-29T00:41:56;8.20;99.90
3312;DHT22;1668;49.648;8.570;2023-12-29T00:44:23;8.20;99.90
3312;DHT22;1668;49.648;8.570;2023-12-29T00:46:50;8.20;99.90
3312;DHT22;1668;49.648;8.570;2023-12-29T00:49:17;8.20;99.90
3312;DHT22;1668;49.648;8.570;2023-12-29T00:51:44;8.20;99.90
3312;DHT22;1668;49.648;8.570;2023-12-29T00:54:11;8.20;99.90
3312;DHT22;1668;49.648;8.570;2023-12-29T00:56:39;8.20;99.90
3312;DHT22;1668;49.648;8.570;2023-12-29T00:59:06;8.20;99.90
3312;DHT22;1668;49.648;8.570;2023-12-29T01:01:33;8.20;99.90
3312;DHT22;1668;49.648;8.570;2023-12-29T01:04:00;8.10;99.90
3312;DHT22;1668;49.648;8.570;2023-12-29T01:06:27;8.10;99.90
3312;DHT22;1668;49.648;8.570;2023-12-29T01:08:54;8.10;99.90
3312;DHT22;1668;49.648;8.570;2023-12-29T01:11:21;8.10;99.90
3312;DHT22;1668;49.648;8.570;2023-12-29T01:13:49;8.10;99.90
3312;DHT22;1668;49.648;8.570;2023-12-29T01:16:16;8.00;99.90
3312;DHT22;1668;49.648;8.570;2023-12-29T01:18:43;8.00;99.90
3312;DHT22;1668;49.648;8.570;2023-12-29T01:21:10;8.00;99.90
3312;DHT22;1668;49.648;8.570;2023-12-29T01:23:36;8.00;99.90
3312;DHT22;1668;49.648;8.570;2023-12-29T01:26:03;8.00;99.90
3312;DHT22;1668;49.648;8.570;2023-12-29T01:28:30;8.00;99.90
3312;DHT22;1668;49.648;8.570;2023-12-29T01:30:58;8.00;99.90
3312;DHT22;1668;49.648;8.570;2023-12-29T01:33:25;7.90;99.90
3312;DHT22;1668;49.648;8.570;2023-12-29T01:35:52;7.90;99.90
3312;DHT22;1668;49.648;8.570;2023-12-29T01:38:19;7.90;99.90
3312;DHT22;1668;49.648;8.570;2023-12-29T01:40:46;7.90;99.90
3312;DHT22;1668;49.648;8.570;2023-12-29T01:43:13;7.90;99.90
3312;DHT22;1668;49.648;8.570;2023-12-29T01:45:41;7.90;99.90
3312;DHT22;1668;49.648;8.570;2023-12-29T01:48:09;7.90;99.90
3312;DHT22;1668;49.648;8.570;2023-12-29T01:50:36;7.80;99.90
3312;DHT22;1668;49.648;8.570;2023-12-29T01:53:04;7.80;99.90
3312;DHT22;1668;49.648;8.570;2023-12-29T01:55:32;7.80;99.90
3312;DHT22;1668;49.648;8.570;2023-12-29T01:58:00;7.80;99.90
3312;DHT22;1668;49.648;8.570;2023-12-29T02:00:28;7.80;99.90
3312;DHT22;1668;49.648;8.570;2023-12-29T02:02:57;7.80;99.90
3312;DHT22;1668;49.648;8.570;2023-12-29T02:05:26;7.80;99.90
3312;DHT22;1668;49.648;8.570;2023-12-29T02:07:56;7.70;99.90
3312;DHT22;1668;49.648;8.570;2023-12-29T02:10:23;7.70;99.90
3312;DHT22;1668;49.648;8.570;2023-12-29T02:12:50;7.70;99.90
3312;DHT22;1668;49.648;8.570;2023-12-29T02:15:19;7.70;99.90
3312;DHT22;1668;49.648;8.570;2023-12-29T02:17:51;7.70;99.90
3312;DHT22;1668;49.648;8.570;2023-12-29T02:20:19;7.70;99.90
3312;DHT22;1668;49.648;8.570;2023-12-29T02:22:48;7.70;99.90
3312;DHT22;1668;49.648;8.570;2023-12-29T02:25:16;7.70;99.90
3312;DHT22;1668;49.648;8.570;2023-12-29T02:27:49;7.70;99.90
3312;DHT22;1668;49.648;8.570;2023-12-29T02:30:22;7.70;99.90
3312;DHT22;1668;49.648;8.570;2023-12-29T02:32:54;7.70;99.90
3312;DHT22;1668;49.648;8.570;2023-12-29T02:35:24;7.70;99.90
3312;DHT22;1668;49.648;8.570;2023-12-29T02:37:52;7.70;99.90
3312;DHT22;1668;49.648;8.570;2023-12-29T02:40:21;7.70;99.90
3312;DHT22;1668;49.648;8.570;2023-12-29T02:42:48;7.70;99.90
3312;DHT22;1668;49.648;8.570;2023-12-29T02:45:15;7.70;99.90
3312;DHT22;1668;49.648;8.570;2023-12-29T02:47:42;7.70;99.90
3312;DHT22;1668;49.648;8.570;2023-12-29T02:50:10;7.70;99.90
3312;DHT22;1668;49.648;8.570;2023-12-29T02:52:37;7.70;99.90
3312;DHT22;1668;49.648;8.570;2023-12-29T02:55:04;7.70;99.90
3312;DHT22;1668;49.648;8.570;2023-12-29T02:57:32;7.70;99.90
3312;DHT22;1668;49.648;8.570;2023-12-29T02:59:59;7.70;99.90
3312;DHT22;1668;49.648;8.570;2023-12-29T03:02:27;7.80;99.90
3312;DHT22;1668;49.648;8.570;2023-12-29T03:04:54;7.80;99.90
3312;DHT22;1668;49.648;8.570;2023-12-29T03:07:20;7.90;99.90
3312;DHT22;1668;49.648;8.570;2023-12-29T03:09:47;8.00;99.90
3312;DHT22;1668;49.648;8.570;2023-12-29T03:12:14;8.00;99.90
3312;DHT22;1668;49.648;8.570;2023-12-29T03:14:44;8.00;99.90
3312;DHT22;1668;49.648;8.570;2023-12-29T03:17:12;8.00;99.90
3312;DHT22;1668;49.648;8.570;2023-12-29T03:19:39;8.10;99.90
3312;DHT22;1668;49.648;8.570;2023-12-29T03:22:06;8.10;99.90
3312;DHT22;1668;49.648;8.570;2023-12-29T03:24:32;8.10;99.90
3312;DHT22;1668;49.648;8.570;2023-12-29T03:27:00;8.10;99.90
3312;DHT22;1668;49.648;8.570;2023-12-29T03:29:27;8.10;99.90
3312;DHT22;1668;49.648;8.570;2023-12-29T03:31:55;8.10;99.90
3312;DHT22;1668;49.648;8.570;2023-12-29T03:34:21;8.20;99.90
3312;DHT22;1668;49.648;8.570;2023-12-29T03:36:48;8.10;99.90
3312;DHT22;1668;49.648;8.570;2023-12-29T03:39:15;8.10;99.90
3312;DHT22;1668;49.648;8.570;2023-12-29T03:41:42;8.20;99.90
3312;DHT22;1668;49.648;8.570;2023-12-29T03:44:09;8.20;99.90
3312;DHT22;1668;49.648;8.570;2023-12-29T03:46:36;8.20;99.90
3312;DHT22;1668;49.648;8.570;2023-12-29T03:49:04;8.20;99.90
3312;DHT22;1668;49.648;8.570;2023-12-29T03:51:31;8.30;92.30
3312;DHT22;1668;49.648;8.570;2023-12-29T03:53:58;8.30;80.90
3312;DHT22;1668;49.648;8.570;2023-12-29T03:56:25;8.30;74.10
3312;DHT22;1668;49.648;8.570;2023-12-29T03:58:51;8.30;69.10
3312;DHT22;1668;49.648;8.570;2023-12-29T04:01:18;8.30;46.00
3312;DHT22;1668;49.648;8.570;2023-12-29T04:03:46;8.20;41.10
3312;DHT22;1668;49.648;8.570;2023-12-29T04:06:14;8.30;42.20
3312;DHT22;1668;49.648;8.570;2023-12-29T04:08:41;8.30;24.00
3312;DHT22;1668;49.648;8.570;2023-12-29T04:11:08;8.20;9.90
3312;DHT22;1668;49.648;8.570;2023-12-29T04:13:35;8.30;6.10
3312;DHT22;1668;49.648;8.570;2023-12-29T04:16:02;8.30;1.00
3312;DHT22;1668;49.648;8.570;2023-12-29T04:18:29;8.30;1.00
3312;DHT22;1668;49.648;8.570;2023-12-29T04:20:56;8.30;1.00
3312;DHT22;1668;49.648;8.570;2023-12-29T04:23:24;8.30;1.00
3312;DHT22;1668;49.648;8.570;2023-12-29T04:25:51;8.30;1.00
3312;DHT22;1668;49.648;8.570;2023-12-29T04:28:18;8.30;1.00
3312;DHT22;1668;49.648;8.570;2023-12-29T04:30:45;8.30;1.00
3312;DHT22;1668;49.648;8.570;2023-12-29T04:33:12;8.30;1.00
3312;DHT22;1668;49.648;8.570;2023-12-29T04:35:39;8.30;1.00
3312;DHT22;1668;49.648;8.570;2023-12-29T04:38:06;8.30;1.00
3312;DHT22;1668;49.648;8.570;2023-12-29T04:40:34;8.40;1.00
3312;DHT22;1668;49.648;8.570;2023-12-29T04:43:01;8.40;1.00
3312;DHT22;1668;49.648;8.570;2023-12-29T04:45:28;8.40;1.00
3312;DHT22;1668;49.648;8.570;2023-12-29T04:47:55;8.50;1.00
3312;DHT22;1668;49.648;8.570;2023-12-29T04:50:22;8.40;1.00
3312;DHT22;1668;49.648;8.570;2023-12-29T04:52:48;8.40;1.00
3312;DHT22;1668;49.648;8.570;2023-12-29T04:55:15;8.40;1.00
3312;DHT22;1668;49.648;8.570;2023-12-29T04:57:44;8.40;1.00
3312;DHT22;1668;49.648;8.570;2023-12-29T05:00:11;8.40;1.00
3312;DHT22;1668;49.648;8.570;2023-12-29T05:02:39;8.40;1.00
3312;DHT22;1668;49.648;8.570;2023-12-29T05:05:06;8.40;1.00
3312;DHT22;1668;49.648;8.570;2023-12-29T05:07:33;8.50;1.00
3312;DHT22;1668;49.648;8.570;2023-12-29T05:09:59;8.50;1.00
3312;DHT22;1668;49.648;8.570;2023-12-29T05:12:26;8.50;1.00
3312;DHT22;1668;49.648;8.570;2023-12-29T05:14:55;8.50;1.00
3312;DHT22;1668;49.648;8.570;2023-12-29T05:17:22;8.50;1.00
3312;DHT22;1668;49.648;8.570;2023-12-29T05:19:48;8.50;1.00
3312;DHT22;1668;49.648;8.570;2023-12-29T05:22:15;8.50;1.00
3312;DHT22;1668;49.648;8.570;2023-12-29T05:24:43;8.50;1.00
3312;DHT22;1668;49.648;8.570;2023-12-29T05:27:10;8.50;1.00
3312;DHT22;1668;49.648;8.570;2023-12-29T05:29:37;8.50;1.00
3312;DHT22;1668;49.648;8.570;2023-12-29T05:32:06;8.50;1.00
3312;DHT22;1668;49.648;8.570;2023-12-29T05:34:34;8.60;1.00
3312;DHT22;1668;49.648;8.570;2023-12-29T05:37:01;8.60;1.00
3312;DHT22;1668;49.648;8.570;2023-12-29T05:39:26;8.60;1.00
3312;DHT22;1668;49.648;8.570;2023-12-29T05:41:54;8.60;1.00
3312;DHT22;1668;49.648;8.570;2023-12-29T05:44:21;8.60;1.00
3312;DHT22;1668;49.648;8.570;2023-12-29T05:46:48;8.70;1.00
3312;DHT22;1668;49.648;8.570;2023-12-29T05:49:17;8.70;99.90
3312;DHT22;1668;49.648;8.570;2023-12-29T05:51:45;8.70;1.00
3312;DHT22;1668;49.648;8.570;2023-12-29T05:54:12;8.70;1.00
3312;DHT22;1668;49.648;8.570;2023-12-29T05:56:39;8.70;1.00
3312;DHT22;1668;49.648;8.570;2023-12-29T05:59:05;8.60;1.00
3312;DHT22;1668;49.648;8.570;2023-12-29T06:01:33;8.50;37.00
3312;DHT22;1668;49.648;8.570;2023-12-29T06:04:00;8.40;99.90
3312;DHT22;1668;49.648;8.570;2023-12-29T06:06:28;8.30;99.90
3312;DHT22;1668;49.648;8.570;2023-12-29T06:08:55;8.30;99.90
3312;DHT22;1668;49.648;8.570;2023-12-29T06:11:22;8.20;99.90
3312;DHT22;1668;49.648;8.570;2023-12-29T06:13:49;8.20;99.90
3312;DHT22;1668;49.648;8.570;2023-12-29T06:16:19;8.10;99.90
3312;DHT22;1668;49.648;8.570;2023-12-29T06:18:46;8.10;99.90
3312;DHT22;1668;49.648;8.570;2023-12-29T06:21:13;8.10;99.90
3312;DHT22;1668;49.648;8.570;2023-12-29T06:23:41;8.00;99.90
3312;DHT22;1668;49.648;8.570;2023-12-29T06:26:14;8.00;99.90
3312;DHT22;1668;49.648;8.570;2023-12-29T06:28:42;8.00;99.90
3312;DHT22;1668;49.648;8.570;2023-12-29T06:31:09;8.00;99.90
3312;DHT22;1668;49.648;8.570;2023-12-29T06:33:36;8.00;99.90
3312;DHT22;1668;49.648;8.570;2023-12-29T06:36:03;8.00;99.90
3312;DHT22;1668;49.648;8.570;2023-12-29T06:38:30;8.00;99.90
3312;DHT22;1668;49.648;8.570;2023-12-29T06:41:02;8.00;99.90
3312;DHT22;1668;49.648;8.570;2023-12-29T06:43:29;7.90;99.90
3312;DHT22;1668;49.648;8.570;2023-12-29T06:45:55;7.90;99.90
3312;DHT22;1668;49.648;8.570;2023-12-29T06:48:22;7.90;99.90
3312;DHT22;1668;49.648;8.570;2023-12-29T06:50:49;7.90;99.90
3312;DHT22;1668;49.648;8.570;2023-12-29T06:53:16;7.90;99.90
3312;DHT22;1668;49.648;8.570;2023-12-29T06:55:43;7.90;99.90
3312;DHT22;1668;49.648;8.570;2023-12-29T06:58:11;7.90;99.90
3312;DHT22;1668;49.648;8.570;2023-12-29T07:00:38;7.90;99.90
3312;DHT22;1668;49.648;8.570;2023-12-29T07:03:05;7.90;99.90
3312;DHT22;1668;49.648;8.570;2023-12-29T07:05:32;7.90;99.90
3312;DHT22;1668;49.648;8.570;2023-12-29T07:07:59;7.90;99.90
3312;DHT22;1668;49.648;8.570;2023-12-29T07:10:26;7.90;99.90
3312;DHT22;1668;49.648;8.570;2023-12-29T07:12:53;7.90;99.90
3312;DHT22;1668;49.648;8.570;2023-12-29T07:15:21;7.90;99.90
3312;DHT22;1668;49.648;8.570;2023-12-29T07:17:48;7.90;99.90
3312;DHT22;1668;49.648;8.570;2023-12-29T07:20:15;7.90;99.90
3312;DHT22;1668;49.648;8.570;2023-12-29T07:22:43;7.90;99.90
3312;DHT22;1668;49.648;8.570;2023-12-29T07:25:10;7.90;99.90
3312;DHT22;1668;49.648;8.570;2023-12-29T07:27:37;7.90;99.90
3312;DHT22;1668;49.648;8.570;2023-12-29T07:30:04;7.90;99.90
3312;DHT22;1668;49.648;8.570;2023-12-29T07:32:33;8.00;99.90
3312;DHT22;1668;49.648;8.570;2023-12-29T07:35:00;8.00;99.90
3312;DHT22;1668;49.648;8.570;2023-12-29T07:37:27;8.00;99.90
3312;DHT22;1668;49.648;8.570;2023-12-29T07:39:54;8.00;99.90
3312;DHT22;1668;49.648;8.570;2023-12-29T07:42:21;8.20;99.90
3312;DHT22;1668;49.648;8.570;2023-12-29T07:44:48;8.30;99.90
3312;DHT22;1668;49.648;8.570;2023-12-29T07:47:15;8.50;1.00
3312;DHT22;1668;49.648;8.570;2023-12-29T07:49:43;8.60;1.00
3312;DHT22;1668;49.648;8.570;2023-12-29T07:52:10;8.70;1.00
3312;DHT22;1668;49.648;8.570;2023-12-29T07:54:37;8.80;1.00
3312;DHT22;1668;49.648;8.570;2023-12-29T07:57:04;8.90;1.00
3312;DHT22;1668;49.648;8.570;2023-12-29T07:59:31;9.10;99.90
3312;DHT22;1668;49.648;8.570;2023-12-29T08:01:58;9.10;86.30
3312;DHT22;1668;49.648;8.570;2023-12-29T08:04:24;9.20;1.00
3312;DHT22;1668;49.648;8.570;2023-12-29T08:06:53;9.30;1.00
3312;DHT22;1668;49.648;8.570;2023-12-29T08:09:19;9.40;1.00
3312;DHT22;1668;49.648;8.570;2023-12-29T08:11:46;9.30;1.00
3312;DHT22;1668;49.648;8.570;2023-12-29T08:14:13;9.30;1.00
3312;DHT22;1668;49.648;8.570;2023-12-29T08:16:41;9.30;1.00
3312;DHT22;1668;49.648;8.570;2023-12-29T08:19:08;9.20;1.00
3312;DHT22;1668;49.648;8.570;2023-12-29T08:21:35;9.30;1.00
3312;DHT22;1668;49.648;8.570;2023-12-29T08:24:04;9.30;1.00
3312;DHT22;1668;49.648;8.570;2023-12-29T08:26:31;9.40;1.00
3312;DHT22;1668;49.648;8.570;2023-12-29T08:28:58;9.50;1.00
3312;DHT22;1668;49.648;8.570;2023-12-29T08:31:25;9.40;1.00
3312;DHT22;1668;49.648;8.570;2023-12-29T08:33:52;9.30;1.00
3312;DHT22;1668;49.648;8.570;2023-12-29T08:36:20;9.30;1.00
3312;DHT22;1668;49.648;8.570;2023-12-29T08:38:47;9.20;1.00
3312;DHT22;1668;49.648;8.570;2023-12-29T08:41:15;9.10;1.00
3312;DHT22;1668;49.648;8.570;2023-12-29T08:43:43;9.10;9.50
3312;DHT22;1668;49.648;8.570;2023-12-29T08:46:11;9.10;38.80
3312;DHT22;1668;49.648;8.570;2023-12-29T08:48:38;9.00;62.90
3312;DHT22;1668;49.648;8.570;2023-12-29T08:51:05;9.00;64.60
3312;DHT22;1668;49.648;8.570;2023-12-29T08:53:32;9.00;58.00
3312;DHT22;1668;49.648;8.570;2023-12-29T08:56:01;9.00;77.30
3312;DHT22;1668;49.648;8.570;2023-12-29T08:58:30;9.00;57.20
3312;DHT22;1668;49.648;8.570;2023-12-29T09:00:57;9.00;78.20
3312;DHT22;1668;49.648;8.570;2023-12-29T09:03:24;9.00;96.50
3312;DHT22;1668;49.648;8.570;2023-12-29T09:05:51;9.00;99.90
3312;DHT22;1668;49.648;8.570;2023-12-29T09:08:18;9.00;99.90
3312;DHT22;1668;49.648;8.570;2023-12-29T09:10:45;8.90;99.90
3312;DHT22;1668;49.648;8.570;2023-12-29T09:13:11;8.90;99.90
3312;DHT22;1668;49.648;8.570;2023-12-29T09:15:40;9.00;99.90
3312;DHT22;1668;49.648;8.570;2023-12-29T09:18:06;8.90;99.90
3312;DHT22;1668;49.648;8.570;2023-12-29T09:20:33;8.90;99.90
3312;DHT22;1668;49.648;8.570;2023-12-29T09:23:00;8.90;99.90
3312;DHT22;1668;49.648;8.570;2023-12-29T09:25:29;9.00;99.90
3312;DHT22;1668;49.648;8.570;2023-12-29T09:27:55;9.00;99.90
3312;DHT22;1668;49.648;8.570;2023-12-29T09:30:22;9.00;99.90
3312;DHT22;1668;49.648;8.570;2023-12-29T09:32:50;9.00;99.90
3312;DHT22;1668;49.648;8.570;2023-12-29T09:35:17;9.00;99.90
3312;DHT22;1668;49.648;8.570;2023-12-29T09:37:47;9.00;99.90
3312;DHT22;1668;49.648;8.570;2023-12-29T09:40:14;9.00;99.90
3312;DHT22;1668;49.648;8.570;2023-12-29T09:42:43;9.00;99.90
3312;DHT22;1668;49.648;8.570;2023-12-29T09:45:11;9.10;99.90
3312;DHT22;1668;49.648;8.570;2023-12-29T09:47:39;9.10;99.90
3312;DHT22;1668;49.648;8.570;2023-12-29T09:50:11;9.10;99.90
3312;DHT22;1668;49.648;8.570;2023-12-29T09:52:39;9.20;99.90
3312;DHT22;1668;49.648;8.570;2023-12-29T09:55:09;9.20;99.90
3312;DHT22;1668;49.648;8.570;2023-12-29T09:57:37;9.20;99.90
3312;DHT22;1668;49.648;8.570;2023-12-29T10:00:05;9.20;99.90
3312;DHT22;1668;49.648;8.570;2023-12-29T10:02:33;9.20;99.90
3312;DHT22;1668;49.648;8.570;2023-12-29T10:05:03;9.30;99.90
3312;DHT22;1668;49.648;8.570;2023-12-29T10:07:35;9.30;99.90
3312;DHT22;1668;49.648;8.570;2023-12-29T10:10:04;9.30;99.90
3312;DHT22;1668;49.648;8.570;2023-12-29T10:12:32;9.30;99.90
3312;DHT22;1668;49.648;8.570;2023-12-29T10:15:05;9.30;99.90
3312;DHT22;1668;49.648;8.570;2023-12-29T10:17:41;9.30;99.90
3312;DHT22;1668;49.648;8.570;2023-12-29T10:20:20;9.30;99.90
3312;DHT22;1668;49.648;8.570;2023-12-29T10:23:00;9.40;99.90
3312;DHT22;1668;49.648;8.570;2023-12-29T10:25:28;9.40;99.90
3312;DHT22;1668;49.648;8.570;2023-12-29T10:27:56;9.40;99.90
3312;DHT22;1668;49.648;8.570;2023-12-29T10:30:24;9.40;99.90
3312;DHT22;1668;49.648;8.570;2023-12-29T10:32:51;9.40;99.90
3312;DHT22;1668;49.648;8.570;2023-12-29T10:35:18;9.40;99.90
3312;DHT22;1668;49.648;8.570;2023-12-29T10:37:45;9.40;99.90
3312;DHT22;1668;49.648;8.570;2023-12-29T10:40:18;9.40;99.90
3312;DHT22;1668;49.648;8.570;2023-12-29T10:42:52;9.40;99.90
3312;DHT22;1668;49.648;8.570;2023-12-29T10:45:20;9.40;99.90
3312;DHT22;1668;49.648;8.570;2023-12-29T10:47:47;9.50;1.00
3312;DHT22;1668;49.648;8.570;2023-12-29T10:50:14;9.50;1.00
3312;DHT22;1668;49.648;8.570;2023-12-29T10:52:41;9.80;99.90
3312;DHT22;1668;49.648;8.570;2023-12-29T10:55:09;10.00;1.00
3312;DHT22;1668;49.648;8.570;2023-12-29T10:57:39;10.00;1.00
3312;DHT22;1668;49.648;8.570;2023-12-29T11:00:08;10.10;1.00
3312;DHT22;1668;49.648;8.570;2023-12-29T11:02:38;10.10;1.00
3312;DHT22;1668;49.648;8.570;2023-12-29T11:05:06;10.20;1.00
3312;DHT22;1668;49.648;8.570;2023-12-29T11:07:37;10.30;99.90
3312;DHT22;1668;49.648;8.570;2023-12-29T11:10:06;10.40;1.00
3312;DHT22;1668;49.648;8.570;2023-12-29T11:12:34;10.50;1.00
3312;DHT22;1668;49.648;8.570;2023-12-29T11:15:04;10.60;1.00
3312;DHT22;1668;49.648;8.570;2023-12-29T11:17:33;10.60;99.90
3312;DHT22;1668;49.648;8.570;2023-12-29T11:20:01;10.60;99.90
3312;DHT22;1668;49.648;8.570;2023-12-29T11:22:29;10.70;1.00
3312;DHT22;1668;49.648;8.570;2023-12-29T11:24:57;10.80;1.00
3312;DHT22;1668;49.648;8.570;2023-12-29T11:27:27;10.80;99.90
3312;DHT22;1668;49.648;8.570;2023-12-29T11:29:57;10.90;99.90
3312;DHT22;1668;49.648;8.570;2023-12-29T11:32:41;10.90;1.00
3312;DHT22;1668;49.648;8.570;2023-12-29T11:35:15;10.90;42.40
3312;DHT22;1668;49.648;8.570;2023-12-29T11:38:03;11.00;1.00
3312;DHT22;1668;49.648;8.570;2023-12-29T11:40:41;11.00;1.00
3312;DHT22;1668;49.648;8.570;2023-12-29T11:43:14;11.10;99.90
3312;DHT22;1668;49.648;8.570;2023-12-29T11:45:41;11.10;99.90
3312;DHT22;1668;49.648;8.570;2023-12-29T11:48:10;11.10;99.90
3312;DHT22;1668;49.648;8.570;2023-12-29T11:50:38;11.20;99.90
3312;DHT22;1668;49.648;8.570;2023-12-29T11:53:06;11.20;1.00
3312;DHT22;1668;49.648;8.570;2023-12-29T11:55:35;11.20;1.00
3312;DHT22;1668;49.648;8.570;2023-12-29T11:58:03;11.20;1.00
3312;DHT22;1668;49.648;8.570;2023-12-29T12:00:44;11.20;1.00
3312;DHT22;1668;49.648;8.570;2023-12-29T12:03:17;11.30;1.00
3312;DHT22;1668;49.648;8.570;2023-12-29T12:05:47;11.30;1.00
3312;DHT22;1668;49.648;8.570;2023-12-29T12:08:27;11.30;1.00
3312;DHT22;1668;49.648;8.570;2023-12-29T12:10:54;11.30;99.90
3312;DHT22;1668;49.648;8.570;2023-12-29T12:13:43;11.30;1.00
3312;DHT22;1668;49.648;8.570;2023-12-29T12:16:10;11.30;1.00
3312;DHT22;1668;49.648;8.570;2023-12-29T12:18:58;11.30;1.00
3312;DHT22;1668;49.648;8.570;2023-12-29T12:21:25;11.30;1.00
3312;DHT22;1668;49.648;8.570;2023-12-29T12:23:53;11.30;1.00
3312;DHT22;1668;49.648;8.570;2023-12-29T12:26:23;11.30;1.00
3312;DHT22;1668;49.648;8.570;2023-12-29T12:28:52;11.30;92.80
3312;DHT22;1668;49.648;8.570;2023-12-29T12:31:19;11.30;1.00
3312;DHT22;1668;49.648;8.570;2023-12-29T12:33:53;11.30;99.90
3312;DHT22;1668;49.648;8.570;2023-12-29T12:36:22;11.30;99.90
3312;DHT22;1668;49.648;8.570;2023-12-29T12:38:53;11.30;97.80
3312;DHT22;1668;49.648;8.570;2023-12-29T12:41:20;11.40;99.90
3312;DHT22;1668;49.648;8.570;2023-12-29T12:43:53;11.40;99.90
3312;DHT22;1668;49.648;8.570;2023-12-29T12:46:24;11.40;99.90
3312;DHT22;1668;49.648;8.570;2023-12-29T12:48:51;11.40;99.90
3312;DHT22;1668;49.648;8.570;2023-12-29T12:51:19;11.40;99.90
3312;DHT22;1668;49.648;8.570;2023-12-29T12:53:48;11.40;99.90
3312;DHT22;1668;49.648;8.570;2023-12-29T12:56:18;11.40;1.00
3312;DHT22;1668;49.648;8.570;2023-12-29T12:58:45;11.40;1.00
3312;DHT22;1668;49.648;8.570;2023-12-29T13:01:12;11.40;1.00
3312;DHT22;1668;49.648;8.570;2023-12-29T13:03:39;11.50;1.00
3312;DHT22;1668;49.648;8.570;2023-12-29T13:06:07;11.50;48.20
3312;DHT22;1668;49.648;8.570;2023-12-29T13:08:34;11.50;99.90
3312;DHT22;1668;49.648;8.570;2023-12-29T13:11:02;11.50;99.90
3312;DHT22;1668;49.648;8.570;2023-12-29T13:13:39;11.50;99.90
3312;DHT22;1668;49.648;8.570;2023-12-29T13:16:06;11.50;1.00
3312;DHT22;1668;49.648;8.570;2023-12-29T13:18:33;11.50;1.00
3312;DHT22;1668;49.648;8.570;2023-12-29T13:21:00;11.50;1.00
3312;DHT22;1668;49.648;8.570;2023-12-29T13:23:28;11.50;1.00
3312;DHT22;1668;49.648;8.570;2023-12-29T13:25:57;11.60;99.90
3312;DHT22;1668;49.648;8.570;2023-12-29T13:28:28;11.60;99.90
3312;DHT22;1668;49.648;8.570;2023-12-29T13:30:56;11.60;16.60
3312;DHT22;1668;49.648;8.570;2023-12-29T13:33:28;11.60;99.90
3312;DHT22;1668;49.648;8.570;2023-12-29T13:36:04;11.60;1.00
3312;DHT22;1668;49.648;8.570;2023-12-29T13:38:35;11.50;99.90
3312;DHT22;1668;49.648;8.570;2023-12-29T13:41:07;11.50;1.00
3312;DHT22;1668;49.648;8.570;2023-12-29T13:43:39;11.50;99.90
3312;DHT22;1668;49.648;8.570;2023-12-29T13:46:09;11.50;99.90
3312;DHT22;1668;49.648;8.570;2023-12-29T13:48:37;11.60;1.00
3312;DHT22;1668;49.648;8.570;2023-12-29T13:51:04;11.50;99.90
3312;DHT22;1668;49.648;8.570;2023-12-29T13:53:32;11.50;99.90
3312;DHT22;1668;49.648;8.570;2023-12-29T13:56:06;11.60;1.00
3312;DHT22;1668;49.648;8.570;2023-12-29T13:58:33;11.60;1.00
3312;DHT22;1668;49.648;8.570;2023-12-29T14:01:04;11.60;1.00
3312;DHT22;1668;49.648;8.570;2023-12-29T14:03:40;11.70;1.00
3312;DHT22;1668;49.648;8.570;2023-12-29T14:06:18;11.60;1.00
3312;DHT22;1668;49.648;8.570;2023-12-29T14:08:46;11.70;1.00
3312;DHT22;1668;49.648;8.570;2023-12-29T14:11:14;11.60;23.00
3312;DHT22;1668;49.648;8.570;2023-12-29T14:13:44;11.70;1.00
3312;DHT22;1668;49.648;8.570;2023-12-29T14:16:12;11.60;99.90
3312;DHT22;1668;49.648;8.570;2023-12-29T14:19:01;11.60;1.00
3312;DHT22;1668;49.648;8.570;2023-12-29T14:21:29;11.60;99.90
3312;DHT22;1668;49.648;8.570;2023-12-29T14:24:01;11.60;1.00
3312;DHT22;1668;49.648;8.570;2023-12-29T14:26:29;11.60;1.00
3312;DHT22;1668;49.648;8.570;2023-12-29T14:29:06;11.60;1.00
3312;DHT22;1668;49.648;8.570;2023-12-29T14:31:37;11.50;19.20
3312;DHT22;1668;49.648;8.570;2023-12-29T14:34:05;11.50;1.00
3312;DHT22;1668;49.648;8.570;2023-12-29T14:36:32;11.50;1.00
3312;DHT22;1668;49.648;8.570;2023-12-29T14:38:59;11.50;99.90
3312;DHT22;1668;49.648;8.570;2023-12-29T14:41:26;11.40;1.00
3312;DHT22;1668;49.648;8.570;2023-12-29T14:43:53;11.40;99.90
3312;DHT22;1668;49.648;8.570;2023-12-29T14:46:20;11.40;99.90
3312;DHT22;1668;49.648;8.570;2023-12-29T14:48:49;11.40;99.90
3312;DHT22;1668;49.648;8.570;2023-12-29T14:51:16;11.40;99.90
3312;DHT22;1668;49.648;8.570;2023-12-29T14:53:44;11.40;99.90
3312;DHT22;1668;49.648;8.570;2023-12-29T14:56:11;11.30;1.00
3312;DHT22;1668;49.648;8.570;2023-12-29T14:58:38;11.30;38.50
3312;DHT22;1668;49.648;8.570;2023-12-29T15:01:06;11.20;99.90
3312;DHT22;1668;49.648;8.570;2023-12-29T15:03:32;11.20;1.00
3312;DHT22;1668;49.648;8.570;2023-12-29T15:06:01;11.20;1.00
3312;DHT22;1668;49.648;8.570;2023-12-29T15:08:28;11.20;74.90
3312;DHT22;1668;49.648;8.570;2023-12-29T15:11:00;11.20;1.00
3312;DHT22;1668;49.648;8.570;2023-12-29T15:13:27;11.10;99.90
3312;DHT22;1668;49.648;8.570;2023-12-29T15:15:56;11.10;1.00
3312;DHT22;1668;49.648;8.570;2023-12-29T15:18:23;11.10;1.00
3312;DHT22;1668;49.648;8.570;2023-12-29T15:20:50;11.10;1.00
3312;DHT22;1668;49.648;8.570;2023-12-29T15:23:18;11.00;1.00
3312;DHT22;1668;49.648;8.570;2023-12-29T15:25:45;11.00;1.00
3312;DHT22;1668;49.648;8.570;2023-12-29T15:28:12;11.00;99.90
3312;DHT22;1668;49.648;8.570;2023-12-29T15:30:39;10.90;99.90
3312;DHT22;1668;49.648;8.570;2023-12-29T15:33:05;10.90;99.90
3312;DHT22;1668;49.648;8.570;2023-12-29T15:35:32;10.80;99.90
3312;DHT22;1668;49.648;8.570;2023-12-29T15:37:59;10.80;99.90
3312;DHT22;1668;49.648;8.570;2023-12-29T15:40:27;10.80;99.90
3312;DHT22;1668;49.648;8.570;2023-12-29T15:42:54;10.70;99.90
3312;DHT22;1668;49.648;8.570;2023-12-29T15:45:22;10.70;99.90
3312;DHT22;1668;49.648;8.570;2023-12-29T15:47:49;10.70;99.90
3312;DHT22;1668;49.648;8.570;2023-12-29T15:50:16;10.60;99.90
3312;DHT22;1668;49.648;8.570;2023-12-29T15:52:42;10.60;1.00
3312;DHT22;1668;49.648;8.570;2023-12-29T15:55:09;10.60;1.00
3312;DHT22;1668;49.648;8.570;2023-12-29T15:57:37;10.50;1.00
3312;DHT22;1668;49.648;8.570;2023-12-29T16:00:05;10.50;1.00
3312;DHT22;1668;49.648;8.570;2023-12-29T16:02:33;10.50;1.00
3312;DHT22;1668;49.648;8.570;2023-12-29T16:05:00;10.50;1.00
3312;DHT22;1668;49.648;8.570;2023-12-29T16:07:28;10.50;1.00
3312;DHT22;1668;49.648;8.570;2023-12-29T16:09:56;10.50;1.00
3312;DHT22;1668;49.648;8.570;2023-12-29T16:12:23;10.50;1.00
3312;DHT22;1668;49.648;8.570;2023-12-29T16:14:51;10.50;99.90
3312;DHT22;1668;49.648;8.570;2023-12-29T16:17:19;10.50;1.00
3312;DHT22;1668;49.648;8.570;2023-12-29T16:19:46;10.40;99.90
3312;DHT22;1668;49.648;8.570;2023-12-29T16:22:13;10.40;1.00